Latest Weather Observations for Kowen Forest

IDN60901

Issued at 11:21 pm EST Saturday 25 June 2022 (issued every 10 minutes, with the page automatically refreshed every 10 minutes)

About weather observations | Map of Canberra area stations | Latest observations for Canberra area | Other Formats
Station Details ID: 250071 Name: KOWEN FOREST (PCS) Lat: -35.31 Lon: 149.32 Height: 720.0 m

Portable automatic weather stations (PAWS) are operated by other organisations, such as Fire and Emergency Services, and are included here by agreement. Portable stations may be deployed to a location for a short period and their location may be subject to change without notice. Wind observations from these stations are provided from heights of either three (3) or ten (10) metres above ground level (AGL).

Data from the previous 72 hours. | See also: Recent months for locations in Aust Capital Territory
Date/Time
EST
Temp
°C
App
Temp
°C
Dew
Point
°C
Rel
Hum
%
Delta-T
°C
Wind Press
QNH
hPa
Press
MSL
hPa
Rain since
9am
mm
Dir  Spd
km/h
Gust
km/h
Spd
kts
Gust
kts
25/11:10pm 0.9 -1.4 0.5 97 0.2 E 2 2 1 1 - - 0.0
25/11:00pm 0.7 -1.7 -0.5 92 0.5 ENE 2 2 1 1 - - 0.0
25/10:50pm 1.4 -1.3 0.1 91 0.5 N 4 6 2 3 - - 0.0
25/10:40pm 2.8 -0.2 0.8 87 0.8 NNE 6 7 3 4 - - 0.0
25/10:30pm 2.6 -0.5 1.1 90 0.6 NE 7 7 4 4 - - 0.0
25/10:20pm 1.9 -1.4 0.4 90 0.6 NE 7 9 4 5 - - 0.0
25/10:10pm 2.5 -1.8 0.9 89 0.6 NE 13 15 7 8 - - 0.0
25/10:00pm 2.2 -0.5 0.4 88 0.7 ESE 4 7 2 4 - - 0.0
25/09:50pm 2.4 -0.6 1.0 90 0.6 E 6 6 3 3 - - 0.0
25/09:40pm 3.8 1.2 0.8 81 1.2 ESE 4 4 2 2 - - 0.0
25/09:30pm 4.6 2.5 1.8 82 1.2 S 2 4 1 2 - - 0.0
25/09:20pm 5.6 2.2 1.9 77 1.6 WSW 9 13 5 7 - - 0.0
25/09:10pm 5.8 2.7 1.5 74 1.8 W 7 9 4 5 - - 0.0
25/09:00pm 5.9 3.0 1.6 74 1.8 NW 6 9 3 5 - - 0.0
25/08:50pm 6.1 2.3 1.5 72 1.9 WNW 11 13 6 7 - - 0.0
25/08:40pm 6.4 2.2 1.5 71 2.1 WNW 13 15 7 8 - - 0.0
25/08:30pm 6.6 1.9 1.2 68 2.3 WNW 15 15 8 8 - - 0.0
25/08:20pm 6.3 2.4 1.1 69 2.2 W 11 15 6 8 - - 0.0
25/08:10pm 6.5 1.8 1.1 68 2.3 W 15 19 8 10 - - 0.0
25/08:00pm 6.5 1.1 1.2 69 2.2 W 19 20 10 11 - - 0.0
25/07:50pm 6.8 2.6 1.5 69 2.2 W 13 17 7 9 - - 0.0
25/07:40pm 7.1 3.3 1.6 68 2.3 W 11 13 6 7 - - 0.0
25/07:30pm 7.4 3.2 1.7 67 2.4 W 13 17 7 9 - - 0.0
25/07:20pm 7.4 2.8 1.8 67 2.4 W 15 19 8 10 - - 0.0
25/07:10pm 7.6 2.7 1.8 66 2.5 W 17 20 9 11 - - 0.0
25/07:00pm 7.5 2.0 1.8 67 2.4 W 20 22 11 12 - - 0.0
25/06:50pm 7.5 2.2 1.9 67 2.4 W 19 20 10 11 - - 0.0
25/06:40pm 7.7 2.4 1.8 66 2.5 W 19 22 10 12 - - 0.0
25/06:30pm 7.5 2.5 1.5 66 2.5 W 17 20 9 11 - - 0.0
25/06:20pm 7.6 3.4 1.5 65 2.6 W 13 17 7 9 - - 0.0
25/06:10pm 7.7 4.2 1.4 64 2.7 W 9 13 5 7 - - 0.0
25/06:00pm 7.7 3.5 1.4 64 2.7 W 13 17 7 9 - - 0.0
25/05:50pm 7.8 3.1 1.2 63 2.8 W 15 17 8 9 - - 0.0
25/05:40pm 8.0 3.7 1.2 62 2.9 W 13 15 7 8 - - 0.0
25/05:30pm 8.1 3.8 1.2 62 2.9 W 13 17 7 9 - - 0.0
25/05:20pm 8.3 3.7 1.5 62 2.9 W 15 17 8 9 - - 0.0
25/05:10pm 8.5 3.1 1.5 61 3.0 W 19 20 10 11 - - 0.0
25/05:00pm 8.5 3.2 1.7 62 2.9 W 19 22 10 12 - - 0.0
25/04:50pm 8.8 3.5 1.8 61 3.0 W 19 22 10 12 - - 0.0
25/04:40pm 9.6 4.1 2.0 59 3.3 W 20 22 11 12 - - 0.0
25/04:30pm 10.1 4.6 2.0 57 3.6 W 20 24 11 13 - - 0.0
25/04:20pm 10.5 4.2 1.8 55 3.8 W 24 30 13 16 - - 0.0
25/04:10pm 10.5 4.6 1.9 55 3.8 W 22 26 12 14 - - 0.0
25/04:00pm 11.4 5.9 2.0 52 4.2 W 20 28 11 15 - - 0.0
25/03:50pm 11.5 4.4 1.6 50 4.4 W 28 37 15 20 - - 0.0
25/03:40pm 11.7 4.3 1.7 50 4.4 WNW 30 35 16 19 - - 0.0
25/03:30pm 11.8 3.8 1.6 49 4.5 W 33 39 18 21 - - 0.0
25/03:20pm 12.1 5.1 1.8 49 4.6 W 28 35 15 19 - - 0.0
25/03:10pm 12.3 5.0 2.4 51 4.5 W 30 35 16 19 - - 0.0
25/03:00pm 12.8 6.7 2.6 50 4.7 W 24 28 13 15 - - 0.0
25/02:50pm 12.8 6.2 2.3 49 4.8 W 26 33 14 18 - - 0.0
25/02:40pm 12.9 6.0 2.5 49 4.7 W 28 33 15 18 - - 0.0
25/02:30pm 12.8 5.1 2.3 49 4.8 W 32 37 17 20 - - 0.0
25/02:20pm 12.9 5.2 2.3 48 4.8 W 32 43 17 23 - - 0.0
25/02:10pm 12.9 5.2 2.3 48 4.8 W 32 35 17 19 - - 0.0
25/02:00pm 13.0 6.0 2.0 47 5.0 W 28 35 15 19 - - 0.0
25/01:50pm 12.8 5.5 2.2 48 4.8 W 30 37 16 20 - - 0.0
25/01:40pm 12.9 5.5 2.1 48 4.9 W 30 35 16 19 - - 0.0
25/01:30pm 12.9 4.9 1.5 46 5.1 W 33 41 18 22 - - 0.0
25/01:20pm 13.0 5.2 1.5 45 5.1 WNW 32 35 17 19 - - 0.0
25/01:10pm 13.0 5.9 1.3 45 5.2 WNW 28 35 15 19 - - 0.0
25/01:00pm 13.4 7.5 1.7 45 5.3 W 22 30 12 16 - - 0.0
25/12:40pm 13.0 7.0 1.0 44 5.3 W 22 30 12 16 - - 0.0
25/12:30pm 13.1 7.2 1.4 45 5.2 W 22 28 12 15 - - 0.0
25/12:20pm 12.8 6.4 1.2 45 5.1 W 24 30 13 16 - - 0.0
25/12:10pm 12.7 5.6 1.5 46 5.0 W 28 32 15 17 - - 0.0
25/12:00pm 12.8 5.9 2.4 49 4.7 W 28 33 15 18 - - 0.0
25/11:50am 12.7 6.1 2.3 49 4.7 W 26 33 14 18 - - 0.0
25/11:40am 12.3 5.3 2.1 49 4.6 W 28 33 15 18 - - 0.0
25/11:30am 12.4 5.9 2.5 51 4.5 WNW 26 32 14 17 - - 0.0
25/11:20am 12.3 7.2 3.2 54 4.2 WNW 19 28 10 15 - - 0.0
25/11:10am 12.2 8.2 4.9 61 3.5 WNW 15 22 8 12 - - 0.0
25/11:00am 12.0 7.0 4.8 61 3.4 WNW 20 26 11 14 - - 0.0
25/10:50am 12.1 7.0 4.0 57 3.8 WNW 20 28 11 15 - - 0.0
25/10:40am 11.8 6.7 4.2 59 3.6 WNW 20 26 11 14 - - 0.0
25/10:30am 11.5 6.7 4.5 62 3.3 W 19 22 10 12 - - 0.0
25/10:20am 11.0 6.0 4.6 64 3.0 WNW 20 24 11 13 - - 0.0
25/10:10am 10.6 5.2 4.7 67 2.8 WNW 22 28 12 15 - - 0.0
25/10:00am 10.5 5.4 4.1 64 3.0 NW 20 24 11 13 - - 0.0
25/09:50am 10.4 5.4 4.4 66 2.8 WNW 20 26 11 14 - - 0.0
25/09:40am 10.5 5.6 4.3 65 2.9 WNW 19 22 10 12 - - 0.0
25/09:30am 10.4 5.8 3.9 64 3.0 WNW 17 19 9 10 - - 0.0
25/09:20am 10.2 5.6 3.7 64 3.0 WNW 17 20 9 11 - - 0.0
25/09:10am 10.0 5.8 3.6 64 2.9 WNW 15 20 8 11 - - 0.0
25/09:00am 9.8 6.3 3.6 65 2.8 WNW 11 15 6 8 - - 0.0
25/08:50am 9.8 7.3 3.7 66 2.8 NW 6 7 3 4 - - 0.0
25/08:40am 9.1 7.5 4.3 72 2.2 SSE 2 4 1 2 - - 0.0
25/08:30am 8.5 6.3 3.3 70 2.3 NE 4 6 2 3 - - 0.0
25/08:20am 7.6 5.6 4.2 79 1.5 NE 4 6 2 3 - - 0.0
25/08:10am 7.0 4.2 3.3 77 1.6 NE 7 11 4 6 - - 0.0
25/08:00am 6.4 2.8 2.8 78 1.6 ENE 11 13 6 7 - - 0.0
25/07:50am 6.1 3.4 2.7 79 1.5 NNE 6 9 3 5 - - 0.0
25/07:40am 6.0 2.7 2.3 77 1.6 NW 9 13 5 7 - - 0.0
25/07:30am 5.3 2.0 2.4 81 1.2 WNW 9 11 5 6 - - 0.0
25/07:20am 5.6 2.7 2.5 80 1.3 WNW 7 9 4 5 - - 0.0
25/07:10am 5.9 2.2 2.5 79 1.5 WNW 11 15 6 8 - - 0.0
25/07:00am 6.1 1.7 2.6 78 1.5 WNW 15 17 8 9 - - 0.0
25/06:50am 6.1 2.1 2.9 80 1.4 W 13 15 7 8 - - 0.0
25/06:40am 6.5 2.5 2.8 77 1.6 W 13 15 7 8 - - 0.0
25/06:30am 6.6 2.6 2.8 77 1.7 W 13 17 7 9 - - 0.0
25/06:20am 6.8 1.7 3.1 77 1.6 W 19 20 10 11 - - 0.0
25/06:10am 7.0 2.3 3.1 76 1.7 W 17 19 9 10 - - 0.0
25/06:00am 7.1 2.4 3.1 76 1.8 W 17 22 9 12 - - 0.0
25/05:50am 7.2 2.2 3.4 77 1.7 WNW 19 22 10 12 - - 0.0
25/05:40am 7.2 2.2 3.5 77 1.6 W 19 22 10 12 - - 0.0
25/05:30am 7.0 2.0 3.7 79 1.5 W 19 20 10 11 - - 0.0
25/05:20am 6.3 2.5 3.9 85 1.1 W 13 17 7 9 - - 0.0
25/05:10am 6.4 3.1 4.6 88 0.8 WNW 11 13 6 7 - - 0.0
25/05:00am 6.5 3.6 4.8 89 0.8 W 9 11 5 6 - - 0.0
25/04:50am 6.6 3.4 5.2 91 0.6 WNW 11 13 6 7 - - 0.0
25/04:40am 6.9 3.4 5.3 89 0.7 WNW 13 17 7 9 - - 0.0
25/04:30am 6.9 3.0 5.4 90 0.7 NW 15 17 8 9 - - 0.0
25/04:20am 6.8 3.3 5.5 91 0.6 NW 13 15 7 8 - - 0.0
25/04:10am 6.9 3.5 5.8 93 0.5 WNW 13 15 7 8 - - 0.0
25/04:00am 7.1 4.1 6.1 93 0.5 WNW 11 13 6 7 - - 0.0
25/03:50am 7.5 4.2 6.4 93 0.5 WNW 13 17 7 9 - - 0.0
25/03:40am 7.7 4.1 6.6 93 0.5 WNW 15 17 8 9 - - 0.0
25/03:30am 7.7 3.8 6.9 95 0.4 WNW 17 20 9 11 - - 0.0
25/03:20am 7.8 3.5 7.2 96 0.3 WNW 19 22 10 12 - - 0.0
25/03:10am 7.9 4.0 7.3 96 0.3 WNW 17 20 9 11 - - 0.0
25/03:00am 7.9 3.7 7.3 96 0.3 NW 19 20 10 11 - - 0.0
25/02:50am 7.9 3.7 7.3 96 0.3 WNW 19 22 10 12 - - 0.0
25/02:40am 7.7 4.2 7.2 97 0.2 WNW 15 22 8 12 - - 0.0
25/02:30am 7.7 4.2 7.1 96 0.3 WNW 15 15 8 8 - - 0.0
25/02:20am 7.8 4.7 7.1 95 0.3 NW 13 15 7 8 - - 0.0
25/02:10am 7.9 4.4 7.2 95 0.3 NW 15 19 8 10 - - 0.0
25/02:00am 8.0 4.9 7.2 95 0.4 NW 13 15 7 8 - - 0.0
25/01:50am 8.1 4.6 7.3 95 0.4 WNW 15 17 8 9 - - 0.0
25/01:40am 8.0 4.5 7.1 94 0.4 NW 15 20 8 11 - - 0.0
25/01:30am 8.1 4.2 7.2 94 0.4 NW 17 19 9 10 - - 0.0
25/01:20am 8.2 4.7 7.2 93 0.5 NW 15 19 8 10 - - 0.0
25/01:10am 8.3 4.4 7.1 92 0.6 NW 17 19 9 10 - - 0.0
25/01:00am 8.1 4.2 7.0 93 0.5 NW 17 19 9 10 - - 0.0
25/12:50am 8.1 4.2 7.0 93 0.5 NW 17 19 9 10 - - 0.0
25/12:40am 8.1 4.5 6.9 92 0.6 NW 15 17 8 9 - - 0.0
25/12:30am 8.3 4.4 7.0 91 0.6 NW 17 19 9 10 - - 0.0
25/12:20am 8.5 5.0 7.0 90 0.7 NW 15 15 8 8 - - 0.0
25/12:10am 8.8 6.0 7.1 89 0.8 NW 11 15 6 8 - - 0.0
25/12:00am 8.8 5.7 7.1 89 0.8 NW 13 15 7 8 - - 0.0
 
Date/Time
EST
Temp
°C
App
Temp
°C
Dew
Point
°C
Rel
Hum
%
Delta-T
°C
Wind Press
QNH
hPa
Press
MSL
hPa
Rain since
9am
mm
Dir  Spd
km/h
Gust
km/h
Spd
kts
Gust
kts
24/11:50pm 8.8 5.6 7.0 88 0.9 NW 13 17 7 9 - - 0.0
24/11:40pm 8.7 5.5 6.9 88 0.9 NW 13 17 7 9 - - 0.0
24/11:30pm 8.9 5.7 6.9 87 1.0 NW 13 17 7 9 - - 0.0
24/11:20pm 8.9 5.3 6.9 87 1.0 NW 15 20 8 11 - - 0.0
24/11:10pm 9.1 5.5 6.9 86 1.1 WNW 15 20 8 11 - - 0.0
24/11:00pm 9.1 5.5 6.9 86 1.1 WNW 15 19 8 10 - - 0.0
24/10:50pm 9.0 5.8 6.7 85 1.1 WNW 13 17 7 9 - - 0.0
24/10:40pm 9.0 6.2 6.8 86 1.1 WNW 11 13 6 7 - - 0.0
24/10:30pm 9.1 6.3 6.9 86 1.1 WNW 11 15 6 8 - - 0.0
24/10:20pm 9.0 5.4 6.9 87 1.0 WNW 15 19 8 10 - - 0.0
24/10:10pm 8.9 5.7 7.0 88 0.9 WNW 13 15 7 8 - - 0.0
24/10:00pm 8.9 5.8 7.4 90 0.7 WNW 13 17 7 9 - - 0.0
24/09:50pm 9.3 5.9 7.7 90 0.8 W 15 20 8 11 - - 0.0
24/09:40pm 9.9 6.7 7.0 82 1.4 WNW 13 15 7 8 - - 0.0
24/09:30pm 10.0 7.0 6.2 77 1.8 WNW 11 15 6 8 - - 0.0
24/09:20pm 10.1 7.5 6.2 77 1.9 WNW 9 11 5 6 - - 0.0
24/09:10pm 10.1 7.5 6.2 77 1.9 W 9 11 5 6 - - 0.0
24/09:00pm 10.1 7.1 6.2 77 1.9 WNW 11 13 6 7 - - 0.0
24/08:50pm 10.2 7.2 6.1 76 2.0 W 11 15 6 8 - - 0.0
24/08:40pm 10.1 7.1 6.1 76 1.9 WNW 11 13 6 7 - - 0.0
24/08:30pm 10.2 6.5 6.2 76 1.9 WNW 15 17 8 9 - - 0.0
24/08:20pm 10.3 5.8 6.1 75 2.0 WNW 19 20 10 11 - - 0.0
24/08:10pm 10.2 6.0 5.9 74 2.1 WNW 17 22 9 12 - - 0.0
24/08:00pm 10.0 6.2 5.9 75 2.0 WNW 15 19 8 10 - - 0.0
24/07:50pm 9.8 5.6 5.8 76 1.9 WNW 17 22 9 12 - - 0.0
24/07:40pm 9.8 5.6 5.7 75 2.0 WNW 17 24 9 13 - - 0.0
24/07:30pm 9.8 5.2 5.7 75 2.0 WNW 19 30 10 16 - - 0.0
24/07:20pm 9.9 5.1 5.8 75 2.0 WNW 20 28 11 15 - - 0.0
24/07:10pm 10.0 4.1 5.8 75 2.0 WNW 26 30 14 16 - - 0.0
24/07:00pm 10.0 4.4 5.6 74 2.1 WNW 24 32 13 17 - - 0.0
24/06:50pm 10.0 3.7 5.6 74 2.1 WNW 28 33 15 18 - - 0.0
24/06:40pm 9.9 3.6 5.5 74 2.1 WNW 28 33 15 18 - - 0.0
24/06:30pm 9.9 3.1 5.3 73 2.2 WNW 30 35 16 19 - - 0.0
24/06:20pm 10.0 2.7 5.5 73 2.1 WNW 33 39 18 21 - - 0.0
24/06:10pm 9.9 2.9 5.9 76 1.9 WNW 32 41 17 22 - - 0.0
24/06:00pm 9.9 2.9 6.0 77 1.9 WNW 32 33 17 18 - - 0.0
24/05:50pm 10.0 3.0 5.9 75 2.0 WNW 32 35 17 19 - - 0.0
24/05:40pm 9.9 2.9 6.1 77 1.8 WNW 32 35 17 19 - - 0.0
24/05:30pm 10.0 3.4 5.9 75 2.0 WNW 30 35 16 19 - - 0.0
24/05:20pm 10.0 3.4 5.9 75 2.0 WNW 30 35 16 19 - - 0.0
24/05:10pm 10.1 3.4 5.8 74 2.1 WNW 30 33 16 18 - - 0.0
24/05:00pm 10.1 3.5 6.0 76 2.0 WNW 30 35 16 19 - - 0.0
24/04:50pm 10.2 4.4 6.3 77 1.9 WNW 26 32 14 17 - - 0.0
24/04:40pm 10.4 4.6 6.3 76 2.0 WNW 26 30 14 16 - - 0.0
24/04:30pm 10.6 3.6 6.1 74 2.2 WNW 32 39 17 21 - - 0.0
24/04:20pm 10.5 4.0 6.3 75 2.0 WNW 30 33 16 18 - - 0.0
24/04:10pm 10.6 4.4 6.2 74 2.1 WNW 28 33 15 18 - - 0.0
24/04:00pm 10.7 4.1 5.9 72 2.3 WNW 30 33 16 18 - - 0.0
24/03:50pm 10.9 3.8 5.7 70 2.5 WNW 32 37 17 20 - - 0.0
24/03:40pm 11.0 3.9 5.7 70 2.6 W 32 35 17 19 - - 0.0
24/03:30pm 11.0 4.7 5.9 71 2.5 WNW 28 35 15 19 - - 0.0
24/03:20pm 11.2 4.2 5.8 69 2.6 W 32 37 17 20 - - 0.0
24/03:10pm 11.3 4.3 5.8 69 2.7 WNW 32 35 17 19 - - 0.0
24/03:00pm 11.3 4.2 5.7 68 2.7 WNW 32 35 17 19 - - 0.0
24/02:50pm 11.3 4.1 5.9 69 2.6 W 33 39 18 21 - - 0.0
24/02:40pm 11.4 3.8 5.6 67 2.8 WNW 35 41 19 22 - - 0.0
24/02:30pm 11.5 3.9 5.8 68 2.8 WNW 35 41 19 22 - - 0.0
24/02:20pm 11.7 4.7 6.0 68 2.8 W 32 35 17 19 - - 0.0
24/02:10pm 11.8 4.2 6.0 67 2.8 W 35 41 19 22 - - 0.0
24/02:00pm 11.8 4.2 5.7 66 3.0 W 35 44 19 24 - - 0.0
24/01:50pm 11.6 4.6 6.1 69 2.7 W 32 35 17 19 - - 0.0
24/01:40pm 11.5 3.6 6.2 70 2.6 WNW 37 43 20 23 - - 0.0
24/01:30pm 11.5 3.6 6.2 70 2.6 W 37 43 20 23 - - 0.0
24/01:20pm 12.0 4.2 6.6 69 2.7 W 37 44 20 24 - - 0.0
24/01:10pm 12.0 4.6 6.7 70 2.6 WNW 35 41 19 22 - - 0.0
24/01:00pm 12.3 4.2 6.8 69 2.7 WNW 39 48 21 26 - - 0.0
24/12:50pm 12.5 4.7 6.7 68 2.9 WNW 37 43 20 23 - - 0.0
24/12:40pm 12.4 5.0 6.8 68 2.8 W 35 43 19 23 - - 0.0
24/12:30pm 12.3 5.3 6.9 69 2.7 WNW 33 39 18 21 - - 0.0
24/12:20pm 12.0 5.0 6.7 70 2.6 WNW 33 39 18 21 - - 0.0
24/12:10pm 12.1 5.1 6.7 69 2.7 WNW 33 41 18 22 - - 0.0
24/12:00pm 11.8 3.9 6.4 69 2.7 WNW 37 43 20 23 - - 0.0
24/11:50am 12.1 5.2 6.4 68 2.8 WNW 32 39 17 21 - - 0.0
24/11:40am 11.8 5.3 6.5 70 2.6 WNW 30 39 16 21 - - 0.0
24/11:30am 11.9 6.5 6.5 69 2.7 WNW 24 33 13 18 - - 0.0
24/11:20am 11.3 5.1 6.0 70 2.6 WNW 28 41 15 22 - - 0.0
24/11:10am 11.4 5.7 6.5 72 2.4 WNW 26 39 14 21 - - 0.0
24/11:00am 11.7 6.3 6.4 70 2.6 NW 24 28 13 15 - - 0.0
24/10:50am 11.1 4.6 6.3 72 2.3 WNW 30 41 16 22 - - 0.0
24/10:40am 10.6 3.6 6.1 74 2.2 WNW 32 37 17 20 - - 0.0
24/10:30am 10.7 4.9 6.2 74 2.2 WNW 26 32 14 17 - - 0.0
24/10:20am 10.1 3.6 6.3 77 1.8 WNW 30 35 16 19 - - 0.0
24/10:10am 10.1 4.2 6.0 76 2.0 WNW 26 33 14 18 - - 0.0
24/10:00am 9.8 4.0 6.2 78 1.7 WNW 26 32 14 17 - - 0.0
24/09:50am 9.7 4.7 6.3 79 1.6 NW 22 28 12 15 - - 0.0
24/09:40am 9.7 5.0 6.2 79 1.7 NW 20 26 11 14 - - 0.0
24/09:30am 9.8 4.7 6.2 78 1.7 NW 22 28 12 15 - - 0.0
24/09:20am 9.8 4.8 6.3 79 1.7 NW 22 28 12 15 - - 0.0
24/09:10am 9.8 4.8 6.4 79 1.6 NW 22 28 12 15 - - 0.0
24/09:00am 9.6 5.0 6.4 80 1.5 NW 20 30 11 16 - - 0.0
24/08:50am 9.6 4.5 6.2 79 1.6 NW 22 28 12 15 - - 0.0
24/08:40am 9.3 4.2 6.0 80 1.6 NW 22 28 12 15 - - 0.0
24/08:30am 8.8 4.1 6.1 83 1.3 NW 20 32 11 17 - - 0.0
24/08:20am 8.7 3.7 6.3 85 1.2 NW 22 26 12 14 - - 0.0
24/08:10am 8.7 3.7 6.3 85 1.2 NW 22 30 12 16 - - 0.0
24/08:00am 8.6 3.5 6.2 85 1.1 NW 22 24 12 13 - - 0.0
24/07:50am 8.6 3.1 6.1 84 1.2 NW 24 32 13 17 - - 0.0
24/07:40am 8.6 3.1 6.1 84 1.2 NW 24 28 13 15 - - 0.0
24/07:30am 8.6 3.1 6.1 84 1.2 NW 24 28 13 15 - - 0.0
24/07:20am 8.6 3.1 6.1 84 1.2 NW 24 32 13 17 - - 0.0
24/07:10am 8.6 3.5 6.1 84 1.2 NW 22 26 12 14 - - 0.0
24/07:00am 8.7 3.6 6.1 84 1.2 WNW 22 28 12 15 - - 0.0
24/06:50am 8.6 3.5 6.2 85 1.1 WNW 22 26 12 14 - - 0.0
24/06:40am 8.7 3.6 6.1 84 1.2 WNW 22 28 12 15 - - 0.0
24/06:30am 8.6 3.5 6.2 85 1.1 WNW 22 30 12 16 - - 0.0
24/06:20am 8.6 4.1 6.2 85 1.1 WNW 19 22 10 12 - - 0.0
24/06:10am 8.5 3.9 6.3 86 1.1 WNW 20 24 11 13 - - 0.0
24/06:00am 8.5 3.9 6.5 87 1.0 WNW 20 26 11 14 - - 0.0
24/05:50am 8.5 4.1 6.4 87 1.0 WNW 19 22 10 12 - - 0.0
24/05:40am 8.4 4.0 6.5 88 0.9 NW 19 22 10 12 - - 0.0
24/05:30am 8.5 4.5 6.6 88 0.9 NW 17 22 9 12 - - 0.0
24/05:20am 8.5 4.9 6.6 88 0.9 WNW 15 19 8 10 - - 0.0
24/05:10am 8.5 4.5 6.6 88 0.9 WNW 17 20 9 11 - - 0.0
24/05:00am 8.4 3.8 6.7 89 0.8 WNW 20 26 11 14 - - 0.0
24/04:50am 8.3 3.8 6.9 91 0.7 W 20 22 11 12 - - 0.0
24/04:40am 8.3 4.7 6.9 91 0.7 W 15 20 8 11 - - 0.0
24/04:30am 8.3 4.7 6.9 91 0.7 W 15 19 8 10 - - 0.0
24/04:20am 8.2 5.0 6.9 91 0.6 WNW 13 19 7 10 - - 0.0
24/04:10am 8.1 5.3 6.9 92 0.6 WNW 11 13 6 7 - - 0.0
24/04:00am 8.3 5.1 6.9 91 0.7 WNW 13 15 7 8 - - 0.0
24/03:50am 8.2 5.8 6.9 91 0.6 WNW 9 11 5 6 - - 0.0
24/03:40am 8.0 5.6 7.0 93 0.5 WNW 9 13 5 7 - - 0.0
24/03:30am 8.1 5.4 7.2 94 0.4 NW 11 13 6 7 - - 0.0
24/03:20am 8.3 5.2 7.4 94 0.4 NW 13 17 7 9 - - 0.0
24/03:10am 8.2 5.5 7.5 95 0.3 WNW 11 13 6 7 - - 0.0
24/03:00am 8.3 5.7 7.6 95 0.3 WNW 11 15 6 8 - - 0.0
24/02:50am 8.2 5.9 7.5 95 0.3 NW 9 13 5 7 - - 0.0
24/02:40am 8.2 5.5 7.3 94 0.4 NW 11 13 6 7 - - 0.0
24/02:30am 8.2 5.1 7.1 93 0.5 NW 13 15 7 8 - - 0.0
24/02:20am 8.1 4.9 6.9 92 0.6 NW 13 15 7 8 - - 0.0
24/02:10am 8.0 5.6 6.8 92 0.6 NW 9 13 5 7 - - 0.0
24/02:00am 8.0 5.1 6.6 91 0.7 NNW 11 13 6 7 - - 0.0
24/01:50am 8.0 5.1 6.5 90 0.7 NNW 11 15 6 8 - - 0.0
24/01:40am 7.9 4.6 6.3 90 0.8 NNW 13 17 7 9 - - 0.0
24/01:30am 7.8 4.5 6.3 90 0.7 NNW 13 15 7 8 - - 0.0
24/01:20am 7.7 4.3 6.1 90 0.8 NW 13 15 7 8 - - 0.0
24/01:10am 7.1 4.1 5.9 92 0.6 WNW 11 13 6 7 - - 0.0
24/01:00am 7.2 4.5 5.8 91 0.7 NNW 9 11 5 6 - - 0.0
24/12:50am 7.4 4.0 6.0 91 0.7 N 13 17 7 9 - - 0.0
24/12:40am 7.2 3.4 5.8 91 0.7 NW 15 17 8 9 - - 0.0
24/12:30am 6.9 3.9 5.8 93 0.5 NW 11 15 6 8 - - 0.0
24/12:20am 7.0 3.6 5.9 93 0.5 NNW 13 15 7 8 - - 0.0
24/12:10am 7.0 3.2 5.8 92 0.6 NNW 15 19 8 10 - - 0.0
24/12:00am 6.9 3.8 5.6 91 0.6 NNW 11 17 6 9 - - 0.0
 
Date/Time
EST
Temp
°C
App
Temp
°C
Dew
Point
°C
Rel
Hum
%
Delta-T
°C
Wind Press
QNH
hPa
Press
MSL
hPa
Rain since
9am
mm
Dir  Spd
km/h
Gust
km/h
Spd
kts
Gust
kts
23/11:50pm 7.1 4.4 5.4 89 0.8 NW 9 13 5 7 - - 0.0
23/11:40pm 7.3 4.2 5.5 88 0.8 NW 11 13 6 7 - - 0.0
23/11:30pm 7.4 3.9 5.5 88 0.9 WNW 13 17 7 9 - - 0.0
23/11:20pm 7.3 3.8 5.5 88 0.8 WNW 13 15 7 8 - - 0.0
23/11:10pm 7.1 3.7 5.7 91 0.7 WNW 13 15 7 8 - - 0.0
23/11:00pm 7.0 4.0 5.9 93 0.5 WNW 11 15 6 8 - - 0.0
23/10:50pm 6.8 3.8 6.0 95 0.4 NW 11 13 6 7 - - 0.0
23/10:40pm 6.7 4.1 5.9 95 0.4 NW 9 11 5 6 - - 0.0
23/10:30pm 6.7 4.1 6.0 95 0.3 NNW 9 13 5 7 - - 0.0
23/10:20pm 6.8 4.2 6.1 95 0.3 NNW 9 13 5 7 - - 0.0
23/10:10pm 6.8 4.2 6.1 95 0.3 NNW 9 13 5 7 - - 0.0
23/10:00pm 6.8 3.8 6.0 95 0.4 NNW 11 13 6 7 - - 0.0
23/09:50pm 6.9 3.9 6.0 94 0.4 NNW 11 13 6 7 - - 0.0
23/09:40pm 7.0 3.6 6.0 93 0.5 NW 13 17 7 9 - - 0.0
23/09:30pm 7.0 3.6 6.0 93 0.5 NW 13 15 7 8 - - 0.0
23/09:20pm 7.0 3.6 6.1 94 0.4 NW 13 15 7 8 - - 0.0
23/09:10pm 7.2 3.8 6.1 93 0.5 NW 13 15 7 8 - - 0.0
23/09:00pm 7.2 3.5 6.1 93 0.5 NW 15 17 8 9 - - 0.0
23/08:50pm 7.3 3.6 6.1 92 0.6 NW 15 20 8 11 - - 0.0
23/08:40pm 7.3 2.8 6.3 93 0.5 NW 19 20 10 11 - - 0.0
23/08:30pm 7.3 3.2 6.3 93 0.5 NW 17 20 9 11 - - 0.0
23/08:20pm 7.3 3.6 6.3 93 0.5 NW 15 17 8 9 - - 0.0
23/08:10pm 7.3 3.2 6.3 93 0.5 NW 17 20 9 11 - - 0.0
23/08:00pm 7.3 3.2 6.3 93 0.5 NW 17 20 9 11 - - 0.0
23/07:50pm 7.2 3.9 6.3 94 0.4 NW 13 15 7 8 - - 0.0
23/07:40pm 7.3 4.7 6.3 93 0.5 NNW 9 13 5 7 - - 0.0
23/07:30pm 7.5 4.2 6.3 92 0.6 NW 13 17 7 9 - - 0.0
23/07:20pm 7.3 4.8 6.4 94 0.4 NNW 9 11 5 6 - - 0.0
23/07:10pm 7.4 4.5 6.4 93 0.5 NW 11 13 6 7 - - 0.0
23/07:00pm 7.4 4.9 6.4 93 0.5 NW 9 11 5 6 - - 0.0
23/06:50pm 7.7 4.8 6.5 92 0.6 NNW 11 15 6 8 - - 0.0
23/06:40pm 7.9 4.3 6.6 91 0.6 NW 15 19 8 10 - - 0.0
23/06:30pm 8.0 4.4 6.7 91 0.6 NW 15 17 8 9 - - 0.0
23/06:20pm 8.0 3.7 6.8 92 0.6 NW 19 22 10 12 - - 0.0
23/06:10pm 8.1 3.6 6.8 91 0.6 WNW 20 22 11 12 - - 0.0
23/06:00pm 8.0 4.4 6.7 91 0.6 NNW 15 20 8 11 - - 0.0
23/05:50pm 8.1 4.5 6.6 90 0.7 NW 15 19 8 10 - - 0.0
23/05:40pm 8.3 4.2 6.4 88 0.9 NW 17 20 9 11 - - 0.0
23/05:30pm 8.3 5.0 6.3 87 1.0 NNW 13 15 7 8 - - 0.0
23/05:20pm 8.4 5.1 6.3 87 1.0 NW 13 20 7 11 - - 0.0
23/05:10pm 8.5 4.8 6.3 86 1.1 NW 15 17 8 9 - - 0.0
23/05:00pm 8.4 5.1 6.3 87 1.0 NW 13 17 7 9 - - 0.0
23/04:50pm 8.8 5.5 6.2 84 1.2 NW 13 17 7 9 - - 0.0
23/04:40pm 9.1 5.0 6.1 81 1.4 NW 17 20 9 11 - - 0.0
23/04:30pm 9.6 5.5 6.1 79 1.7 NW 17 20 9 11 - - 0.0
23/04:20pm 10.3 5.8 6.1 75 2.0 WNW 19 22 10 12 - - 0.0
23/04:10pm 11.0 6.9 6.1 72 2.4 WNW 17 20 9 11 - - 0.0
23/04:00pm 11.2 7.5 6.4 72 2.4 NW 15 19 8 10 - - 0.0
23/03:50pm 11.2 7.1 6.4 72 2.4 NW 17 22 9 12 - - 0.0
23/03:40pm 11.4 7.0 6.6 72 2.4 NW 19 20 10 11 - - 0.0
23/03:30pm 11.6 7.6 6.7 72 2.4 WNW 17 20 9 11 - - 0.0
23/03:20pm 11.6 7.2 6.5 71 2.5 NW 19 22 10 12 - - 0.0
23/03:10pm 11.9 7.6 6.8 71 2.5 NW 19 24 10 13 - - 0.0
23/03:00pm 12.1 7.7 6.7 69 2.7 NW 19 20 10 11 - - 0.0
23/02:50pm 11.9 7.9 6.8 71 2.5 WNW 17 26 9 14 - - 0.0
23/02:40pm 11.6 6.7 7.0 73 2.3 WNW 22 28 12 15 - - 0.0
23/02:30pm 12.2 7.9 7.0 70 2.6 WNW 19 24 10 13 - - 0.0
23/02:20pm 12.3 8.0 6.8 69 2.7 NW 19 22 10 12 - - 0.0
23/02:10pm 12.4 8.1 6.9 69 2.7 NW 19 22 10 12 - - 0.0
23/02:00pm 12.3 7.8 7.0 70 2.7 NW 20 22 11 12 - - 0.0
23/01:50pm 12.4 8.1 6.9 69 2.7 NW 19 24 10 13 - - 0.0
23/01:40pm 12.8 8.5 7.0 68 2.9 WNW 19 26 10 14 - - 0.0
23/01:30pm 12.5 8.0 6.8 68 2.8 WNW 20 24 11 13 - - 0.0
23/01:20pm 12.3 8.2 6.3 67 3.0 WNW 17 19 9 10 - - 0.0
23/01:10pm 11.8 8.6 6.7 71 2.5 WNW 13 15 7 8 - - 0.0
23/01:00pm 11.7 8.0 6.4 70 2.6 WNW 15 17 8 9 - - 0.0
23/12:50pm 11.2 6.7 6.1 71 2.5 WNW 19 22 10 12 - - 0.0
23/12:40pm 11.3 7.2 6.3 71 2.4 WNW 17 20 9 11 - - 0.0
23/12:30pm 11.2 6.8 6.5 73 2.3 WNW 19 24 10 13 - - 0.0
23/12:20pm 11.6 7.2 6.7 72 2.4 WNW 19 22 10 12 - - 0.0
23/12:10pm 12.1 8.5 6.7 69 2.7 NW 15 19 8 10 - - 0.0
23/12:00pm 11.8 7.3 6.0 67 2.8 WNW 19 22 10 12 - - 0.0
23/11:50am 11.8 7.3 5.9 67 2.9 NW 19 24 10 13 - - 0.0
23/11:40am 11.6 7.0 6.3 70 2.6 W 20 26 11 14 - - 0.0

Latest Capital City Observations: Canberra | Sydney | Melbourne | Brisbane | Adelaide | Perth | Hobart | Darwin

Other formats

Comma delimited format used in spreadsheet applications
http://www.bom.gov.au/fwo/IDN60903/IDN60903.99764.axf

JavaScript Object Notation format (JSON) in row-major order
http://www.bom.gov.au/fwo/IDN60903/IDN60903.99764.json

Data quality

Most of these data are generated automatically and are frequently updated. Quality checks on data are not normally performed. It is possible for incorrect values to appear. Refer to information at About Latest Weather Observations and please check the disclaimer before using these data.